createdAt,value
2019-03-31T00:00:21.415Z,9.42
2019-03-31T00:01:21.401Z,9.40
2019-03-31T00:02:21.392Z,9.31
2019-03-31T00:03:21.379Z,9.42
2019-03-31T00:04:21.380Z,9.28
2019-03-31T00:05:21.359Z,9.32
2019-03-31T00:06:21.347Z,9.27
2019-03-31T00:07:21.335Z,9.24
2019-03-31T00:08:21.326Z,9.27
2019-03-31T00:09:21.320Z,9.25
2019-03-31T00:10:21.301Z,9.23
2019-03-31T00:11:21.290Z,9.21
2019-03-31T00:12:21.292Z,9.20
2019-03-31T00:13:21.267Z,9.16
2019-03-31T00:14:21.267Z,9.18
2019-03-31T00:15:21.255Z,9.21
2019-03-31T00:16:21.233Z,9.16
2019-03-31T00:17:21.229Z,9.12
2019-03-31T00:18:21.211Z,9.15
2019-03-31T00:19:21.210Z,9.16
2019-03-31T00:20:21.191Z,9.10
2019-03-31T00:21:21.181Z,9.02
2019-03-31T00:22:21.168Z,9.12
2019-03-31T00:23:21.159Z,9.06
2019-03-31T00:24:21.164Z,9.02
2019-03-31T00:25:21.135Z,9.01
2019-03-31T00:26:21.122Z,8.94
2019-03-31T00:27:21.115Z,9.01
2019-03-31T00:28:21.107Z,8.96
2019-03-31T00:29:21.089Z,8.93
2019-03-31T00:30:21.085Z,8.91
2019-03-31T00:31:22.395Z,8.96
2019-03-31T00:32:21.054Z,8.94
2019-03-31T00:33:21.045Z,8.93
2019-03-31T00:34:21.036Z,8.94
2019-03-31T00:35:21.031Z,8.93
2019-03-31T00:36:21.012Z,8.81
2019-03-31T00:37:21.000Z,8.76
2019-03-31T00:38:20.990Z,8.83
2019-03-31T00:39:20.977Z,8.81
2019-03-31T00:40:20.978Z,8.78
2019-03-31T00:41:20.954Z,8.86
2019-03-31T00:42:20.943Z,8.79
2019-03-31T00:43:20.934Z,8.73
2019-03-31T00:44:20.922Z,8.69
2019-03-31T00:45:20.923Z,8.78
2019-03-31T00:46:20.902Z,8.72
2019-03-31T00:47:20.888Z,8.66
2019-03-31T00:48:20.876Z,8.68
2019-03-31T00:49:20.867Z,8.58
2019-03-31T00:50:20.863Z,8.58
2019-03-31T00:51:20.842Z,8.62
2019-03-31T00:52:20.834Z,8.69
2019-03-31T00:53:20.822Z,8.58
2019-03-31T00:54:20.813Z,8.63
2019-03-31T00:55:20.808Z,8.63
2019-03-31T00:56:20.791Z,8.60
2019-03-31T00:57:20.779Z,8.54
2019-03-31T00:58:20.768Z,8.63
2019-03-31T00:59:20.761Z,8.45
2019-03-31T01:00:20.755Z,8.44
2019-03-31T01:01:20.730Z,8.50
2019-03-31T01:02:20.719Z,8.45
2019-03-31T01:03:20.710Z,8.42
2019-03-31T01:04:20.700Z,8.39
2019-03-31T01:05:20.696Z,8.40
2019-03-31T01:06:20.683Z,8.51
2019-03-31T01:07:20.666Z,8.32
2019-03-31T01:08:20.657Z,8.36
2019-03-31T01:09:20.641Z,8.40
2019-03-31T01:10:20.663Z,8.48
2019-03-31T01:11:20.621Z,8.40
2019-03-31T01:12:20.611Z,8.45
2019-03-31T01:13:20.597Z,8.39
2019-03-31T01:14:20.587Z,8.57
2019-03-31T01:15:20.575Z,8.39
2019-03-31T01:16:20.581Z,8.47
2019-03-31T01:17:20.551Z,8.51
2019-03-31T01:18:20.555Z,8.51
2019-03-31T01:19:20.530Z,8.44
2019-03-31T01:20:20.520Z,8.44
2019-03-31T01:21:20.520Z,8.44
2019-03-31T01:22:20.498Z,8.45
2019-03-31T01:23:20.491Z,8.42
2019-03-31T01:24:20.474Z,8.48
2019-03-31T01:25:20.490Z,8.51
2019-03-31T01:26:20.461Z,8.48
2019-03-31T01:27:20.441Z,8.48
2019-03-31T01:28:20.431Z,8.42
2019-03-31T01:29:20.418Z,8.48
2019-03-31T01:30:20.407Z,8.54
2019-03-31T01:31:20.406Z,8.44
2019-03-31T01:32:20.385Z,8.40
2019-03-31T01:33:20.374Z,8.35
2019-03-31T01:34:20.361Z,8.44
2019-03-31T01:35:20.350Z,8.44
2019-03-31T01:36:20.346Z,8.37
2019-03-31T01:37:20.437Z,8.35
2019-03-31T01:38:20.317Z,8.29
2019-03-31T01:39:20.304Z,8.36
2019-03-31T01:40:20.296Z,8.25
2019-03-31T01:41:20.295Z,8.40
2019-03-31T01:42:20.275Z,8.18
2019-03-31T01:43:20.260Z,8.33
2019-03-31T01:44:20.250Z,8.21
2019-03-31T01:45:20.237Z,8.28
2019-03-31T01:46:20.227Z,8.22
2019-03-31T01:47:20.229Z,8.12
2019-03-31T01:48:20.203Z,8.21
2019-03-31T01:49:20.196Z,8.26
2019-03-31T01:50:20.183Z,8.22
2019-03-31T01:51:20.171Z,8.15
2019-03-31T01:52:20.169Z,8.15
2019-03-31T01:53:20.151Z,8.17
2019-03-31T01:54:20.138Z,8.11
2019-03-31T01:55:20.127Z,8.04
2019-03-31T01:56:20.116Z,8.08
2019-03-31T01:57:20.115Z,8.08
2019-03-31T01:58:20.093Z,8.11
2019-03-31T01:59:20.085Z,8.08
2019-03-31T02:00:20.071Z,7.99
2019-03-31T02:01:20.062Z,8.02
2019-03-31T02:02:20.055Z,7.96
2019-03-31T02:03:20.041Z,7.93
2019-03-31T02:04:20.025Z,7.92
2019-03-31T02:05:20.015Z,7.94
2019-03-31T02:06:20.006Z,7.97
2019-03-31T02:07:20.001Z,7.94
2019-03-31T02:08:19.982Z,7.92
2019-03-31T02:09:19.969Z,7.89
2019-03-31T02:10:19.959Z,7.87
2019-03-31T02:11:19.948Z,7.87
2019-03-31T02:12:19.945Z,7.82
2019-03-31T02:13:19.926Z,7.75
2019-03-31T02:14:19.913Z,7.74
2019-03-31T02:15:19.901Z,7.75
2019-03-31T02:16:19.893Z,7.75
2019-03-31T02:17:19.892Z,7.82
2019-03-31T02:18:19.868Z,7.69
2019-03-31T02:19:19.858Z,7.71
2019-03-31T02:20:19.846Z,7.72
2019-03-31T02:21:19.834Z,7.69
2019-03-31T02:22:19.837Z,7.69
2019-03-31T02:23:19.814Z,7.72
2019-03-31T02:24:19.800Z,7.74
2019-03-31T02:25:19.790Z,7.52
2019-03-31T02:26:19.783Z,7.58
2019-03-31T02:27:19.766Z,7.59
2019-03-31T02:28:19.768Z,7.62
2019-03-31T02:29:19.746Z,7.50
2019-03-31T02:30:19.734Z,7.42
2019-03-31T02:31:19.723Z,7.56
2019-03-31T02:32:24.013Z,7.45
2019-03-31T02:33:20.715Z,7.55
2019-03-31T02:34:19.693Z,7.44
2019-03-31T02:35:19.678Z,7.55
2019-03-31T02:36:19.667Z,7.41
2019-03-31T02:37:19.656Z,7.37
2019-03-31T02:38:19.652Z,7.35
2019-03-31T02:39:19.633Z,7.40
2019-03-31T02:40:19.622Z,7.40
2019-03-31T02:41:19.616Z,7.37
2019-03-31T02:42:19.633Z,7.44
2019-03-31T02:43:19.611Z,7.38
2019-03-31T02:44:19.579Z,7.38
2019-03-31T02:45:19.574Z,7.37
2019-03-31T02:46:19.555Z,7.31
2019-03-31T02:47:19.543Z,7.24
2019-03-31T02:48:19.541Z,7.35
2019-03-31T02:49:19.521Z,7.35
2019-03-31T02:50:19.511Z,7.34
2019-03-31T02:51:19.501Z,7.31
2019-03-31T02:52:19.486Z,7.37
2019-03-31T02:53:19.488Z,7.32
2019-03-31T02:54:19.467Z,7.24
2019-03-31T02:55:19.454Z,7.32
2019-03-31T02:56:19.442Z,7.27
2019-03-31T02:57:19.432Z,7.24
2019-03-31T02:58:19.430Z,7.19
2019-03-31T02:59:19.420Z,7.23
2019-03-31T03:00:19.401Z,7.32
2019-03-31T03:01:19.387Z,7.26
2019-03-31T03:02:19.381Z,7.22
2019-03-31T03:03:19.373Z,7.26
2019-03-31T03:04:19.354Z,7.24
2019-03-31T03:05:20.481Z,7.13
2019-03-31T03:06:19.335Z,7.09
2019-03-31T03:07:19.319Z,7.08
2019-03-31T03:08:19.317Z,7.04
2019-03-31T03:09:19.306Z,7.15
2019-03-31T03:10:19.287Z,6.98
2019-03-31T03:11:19.274Z,7.04
2019-03-31T03:12:19.263Z,7.01
2019-03-31T03:13:19.271Z,6.95
2019-03-31T03:14:19.252Z,7.04
2019-03-31T03:15:19.231Z,6.98
2019-03-31T03:16:19.222Z,6.95
2019-03-31T03:17:19.207Z,7.08
2019-03-31T03:18:19.207Z,7.05
2019-03-31T03:19:19.186Z,6.94
2019-03-31T03:20:19.175Z,6.94
2019-03-31T03:21:23.476Z,7.12
2019-03-31T03:22:20.153Z,7.01
2019-03-31T03:23:19.161Z,6.87
2019-03-31T03:24:19.131Z,6.94
2019-03-31T03:25:19.118Z,6.95
2019-03-31T03:26:19.107Z,6.98
2019-03-31T03:27:19.095Z,6.81
2019-03-31T03:28:19.089Z,6.98
2019-03-31T03:29:19.084Z,6.97
2019-03-31T03:30:19.123Z,6.89
2019-03-31T03:31:19.198Z,6.91
2019-03-31T03:32:19.051Z,6.97
2019-03-31T03:33:19.365Z,6.87
2019-03-31T03:34:19.029Z,6.91
2019-03-31T03:35:19.017Z,6.84
2019-03-31T03:36:18.994Z,6.79
2019-03-31T03:37:18.985Z,6.87
2019-03-31T03:38:18.972Z,6.81
2019-03-31T03:39:18.971Z,6.89
2019-03-31T03:40:18.951Z,6.84
2019-03-31T03:41:18.939Z,6.89
2019-03-31T03:42:18.927Z,6.80
2019-03-31T03:43:18.915Z,6.79
2019-03-31T03:44:18.915Z,6.84
2019-03-31T03:45:18.895Z,6.87
2019-03-31T03:46:18.883Z,6.84
2019-03-31T03:47:18.873Z,6.79
2019-03-31T03:48:18.860Z,6.83
2019-03-31T03:49:19.057Z,6.84
2019-03-31T03:50:18.838Z,6.84
2019-03-31T03:51:18.833Z,6.80
2019-03-31T03:52:18.815Z,6.77
2019-03-31T03:53:18.811Z,6.77
2019-03-31T03:54:18.803Z,6.83
2019-03-31T03:55:18.782Z,6.84
2019-03-31T03:56:18.908Z,6.87
2019-03-31T03:57:18.789Z,6.76
2019-03-31T03:58:18.752Z,6.72
2019-03-31T03:59:18.756Z,6.69
2019-03-31T04:00:18.730Z,6.73
2019-03-31T04:01:18.759Z,6.71
2019-03-31T04:02:18.707Z,6.76
2019-03-31T04:03:29.769Z,6.79
2019-03-31T04:04:19.696Z,6.72
2019-03-31T04:05:18.671Z,6.72
2019-03-31T04:06:18.659Z,6.58
2019-03-31T04:07:18.652Z,6.71
2019-03-31T04:08:18.637Z,6.61
2019-03-31T04:09:18.638Z,6.56
2019-03-31T04:10:18.615Z,6.58
2019-03-31T04:11:21.145Z,6.58
2019-03-31T04:12:18.599Z,6.53
2019-03-31T04:13:18.588Z,6.50
2019-03-31T04:14:18.595Z,6.50
2019-03-31T04:15:18.572Z,6.47
2019-03-31T04:16:18.654Z,6.41
2019-03-31T04:17:18.535Z,6.46
2019-03-31T04:18:18.532Z,6.44
2019-03-31T04:19:18.541Z,6.33
2019-03-31T04:20:18.503Z,6.44
2019-03-31T04:21:18.493Z,6.38
2019-03-31T04:22:18.478Z,6.41
2019-03-31T04:23:18.473Z,6.40
2019-03-31T04:24:18.469Z,6.41
2019-03-31T04:25:18.450Z,6.36
2019-03-31T04:26:18.462Z,6.30
2019-03-31T04:27:19.147Z,6.33
2019-03-31T04:28:18.415Z,6.38
2019-03-31T04:29:18.412Z,6.38
2019-03-31T04:30:18.392Z,6.38
2019-03-31T04:31:18.387Z,6.32
2019-03-31T04:32:18.369Z,6.25
2019-03-31T04:33:18.368Z,6.29
2019-03-31T04:34:18.356Z,6.33
2019-03-31T04:35:18.336Z,6.13
2019-03-31T04:36:18.323Z,6.32
2019-03-31T04:37:18.313Z,6.26
2019-03-31T04:38:18.302Z,6.32
2019-03-31T04:39:18.301Z,6.30
2019-03-31T04:40:18.279Z,6.28
2019-03-31T04:41:18.352Z,6.16
2019-03-31T04:42:18.256Z,6.19
2019-03-31T04:43:18.247Z,6.28
2019-03-31T04:44:18.251Z,6.19
2019-03-31T04:45:18.227Z,6.22
2019-03-31T04:46:18.225Z,6.10
2019-03-31T04:47:18.201Z,6.16
2019-03-31T04:48:18.190Z,6.28
2019-03-31T04:49:18.180Z,6.21
2019-03-31T04:50:18.175Z,6.19
2019-03-31T04:51:18.155Z,6.19
2019-03-31T04:52:18.152Z,6.13
2019-03-31T04:53:18.134Z,6.21
2019-03-31T04:54:18.123Z,6.18
2019-03-31T04:55:18.122Z,6.06
2019-03-31T04:56:18.101Z,6.13
2019-03-31T04:57:18.089Z,6.22
2019-03-31T04:58:18.079Z,6.10
2019-03-31T04:59:18.068Z,6.16
2019-03-31T05:00:18.064Z,6.13
2019-03-31T05:01:18.045Z,6.07
2019-03-31T05:02:18.039Z,6.07
2019-03-31T05:03:18.023Z,6.10
2019-03-31T05:04:18.012Z,6.11
2019-03-31T05:05:18.010Z,6.09
2019-03-31T05:06:17.988Z,6.09
2019-03-31T05:07:17.980Z,6.19
2019-03-31T05:08:17.968Z,6.06
2019-03-31T05:09:17.956Z,6.13
2019-03-31T05:10:17.953Z,6.07
2019-03-31T05:11:17.932Z,6.11
2019-03-31T05:12:17.921Z,6.18
2019-03-31T05:13:17.915Z,6.09
2019-03-31T05:14:17.901Z,6.13
2019-03-31T05:15:17.896Z,6.10
2019-03-31T05:16:17.879Z,6.07
2019-03-31T05:17:17.867Z,6.04
2019-03-31T05:18:17.856Z,6.03
2019-03-31T05:19:17.848Z,6.01
2019-03-31T05:20:17.841Z,5.98
2019-03-31T05:21:17.824Z,5.95
2019-03-31T05:22:17.809Z,6.00
2019-03-31T05:23:17.800Z,5.93
2019-03-31T05:24:17.789Z,6.04
2019-03-31T05:25:17.788Z,6.04
2019-03-31T05:26:17.769Z,5.93
2019-03-31T05:27:17.759Z,6.03
2019-03-31T05:28:17.743Z,5.95
2019-03-31T05:29:17.735Z,6.00
2019-03-31T05:30:17.729Z,6.06
2019-03-31T05:31:17.712Z,5.93
2019-03-31T05:32:17.699Z,6.00
2019-03-31T05:33:17.694Z,6.04
2019-03-31T05:34:19.335Z,6.06
2019-03-31T05:35:17.676Z,6.09
2019-03-31T05:36:17.657Z,6.09
2019-03-31T05:37:17.642Z,6.06
2019-03-31T05:38:17.632Z,6.06
2019-03-31T05:39:17.624Z,6.03
2019-03-31T05:40:17.618Z,6.07
2019-03-31T05:41:17.606Z,6.13
2019-03-31T05:42:17.592Z,6.21
2019-03-31T05:43:17.581Z,6.16
2019-03-31T05:44:17.566Z,6.07
2019-03-31T05:45:17.582Z,6.19
2019-03-31T05:46:17.543Z,6.16
2019-03-31T05:47:17.533Z,6.18
2019-03-31T05:48:17.520Z,6.19
2019-03-31T05:49:17.510Z,6.26
2019-03-31T05:50:17.507Z,6.18
2019-03-31T05:51:17.488Z,6.28
2019-03-31T05:52:17.475Z,6.14
2019-03-31T05:53:17.467Z,6.32
2019-03-31T05:54:17.453Z,6.18
2019-03-31T05:55:18.970Z,6.19
2019-03-31T05:56:17.435Z,6.36
2019-03-31T05:57:17.421Z,6.33
2019-03-31T05:58:17.411Z,6.32
2019-03-31T05:59:17.398Z,6.41
2019-03-31T06:00:17.396Z,6.30
2019-03-31T06:01:17.376Z,6.41
2019-03-31T06:02:17.366Z,6.43
2019-03-31T06:03:17.353Z,6.38
2019-03-31T06:04:17.344Z,6.43
2019-03-31T06:05:17.339Z,6.58
2019-03-31T06:06:17.325Z,6.66
2019-03-31T06:07:17.309Z,6.68
2019-03-31T06:08:17.297Z,6.71
2019-03-31T06:09:17.288Z,6.83
2019-03-31T06:10:17.283Z,6.84
2019-03-31T06:11:17.264Z,6.90
2019-03-31T06:12:17.252Z,7.02
2019-03-31T06:13:17.244Z,7.02
2019-03-31T06:14:17.230Z,7.23
2019-03-31T06:15:17.231Z,7.31
2019-03-31T06:16:17.210Z,7.38
2019-03-31T06:17:17.201Z,7.49
2019-03-31T06:18:17.189Z,7.56
2019-03-31T06:19:17.178Z,7.62
2019-03-31T06:20:17.171Z,7.59
2019-03-31T06:21:17.154Z,7.71
2019-03-31T06:22:17.150Z,7.75
2019-03-31T06:23:17.130Z,7.60
2019-03-31T06:24:17.118Z,7.84
2019-03-31T06:25:17.119Z,7.74
2019-03-31T06:26:17.096Z,7.67
2019-03-31T06:27:17.090Z,7.78
2019-03-31T06:28:17.078Z,7.72
2019-03-31T06:29:17.674Z,7.77
2019-03-31T06:30:17.059Z,7.75
2019-03-31T06:31:17.040Z,7.74
2019-03-31T06:32:17.032Z,7.78
2019-03-31T06:33:17.016Z,7.79
2019-03-31T06:34:17.006Z,7.84
2019-03-31T06:35:17.008Z,7.90
2019-03-31T06:36:16.985Z,7.93
2019-03-31T06:37:16.980Z,7.94
2019-03-31T06:38:16.961Z,8.00
2019-03-31T06:39:16.954Z,7.99
2019-03-31T06:40:16.949Z,8.04
2019-03-31T06:41:16.928Z,8.02
2019-03-31T06:42:16.920Z,8.15
2019-03-31T06:43:16.905Z,8.20
2019-03-31T06:44:16.896Z,8.12
2019-03-31T06:45:16.893Z,8.12
2019-03-31T06:46:16.874Z,8.18
2019-03-31T06:47:16.860Z,8.35
2019-03-31T06:48:16.849Z,8.42
2019-03-31T06:49:16.839Z,8.50
2019-03-31T06:50:16.837Z,8.53
2019-03-31T06:51:17.227Z,8.50
2019-03-31T06:52:16.809Z,8.60
2019-03-31T06:53:16.793Z,8.78
2019-03-31T06:54:16.782Z,9.05
2019-03-31T06:55:16.779Z,9.15
2019-03-31T06:56:16.762Z,9.20
2019-03-31T06:57:16.753Z,9.35
2019-03-31T06:58:16.740Z,9.57
2019-03-31T06:59:16.728Z,9.70
2019-03-31T07:00:16.722Z,9.89
2019-03-31T07:01:16.703Z,9.83
2019-03-31T07:02:16.696Z,9.88
2019-03-31T07:03:16.682Z,9.85
2019-03-31T07:04:16.672Z,9.94
2019-03-31T07:05:16.675Z,10.14
2019-03-31T07:06:16.647Z,10.36
2019-03-31T07:07:16.636Z,10.32
2019-03-31T07:08:16.626Z,10.30
2019-03-31T07:09:16.614Z,10.25
2019-03-31T07:10:16.603Z,10.33
2019-03-31T07:11:16.600Z,10.34
2019-03-31T07:12:16.585Z,10.26
2019-03-31T07:13:16.573Z,10.39
2019-03-31T07:14:16.558Z,10.34
2019-03-31T07:15:16.547Z,10.37
2019-03-31T07:16:16.552Z,10.56
2019-03-31T07:17:16.527Z,10.59
2019-03-31T07:18:16.514Z,10.68
2019-03-31T07:19:16.503Z,10.89
2019-03-31T07:20:16.494Z,11.07
2019-03-31T07:21:16.488Z,11.27
2019-03-31T07:22:16.559Z,11.34
2019-03-31T07:23:16.457Z,11.53
2019-03-31T07:24:16.453Z,11.50
2019-03-31T07:25:16.438Z,11.50
2019-03-31T07:26:16.433Z,11.59
2019-03-31T07:27:16.417Z,11.65
2019-03-31T07:28:16.404Z,11.70
2019-03-31T07:29:16.390Z,11.70
2019-03-31T07:30:16.391Z,11.82
2019-03-31T07:31:16.380Z,11.85
2019-03-31T07:32:16.358Z,11.86
2019-03-31T07:33:16.350Z,11.93
2019-03-31T07:34:16.373Z,12.04
2019-03-31T07:35:18.811Z,12.12
2019-03-31T07:36:16.322Z,12.15
2019-03-31T07:37:16.301Z,12.16
2019-03-31T07:38:16.292Z,12.24
2019-03-31T07:39:16.540Z,12.24
2019-03-31T07:40:16.314Z,12.26
2019-03-31T07:41:16.270Z,12.27
2019-03-31T07:42:16.273Z,12.33
2019-03-31T07:43:16.294Z,12.26
2019-03-31T07:44:16.224Z,12.23
2019-03-31T07:45:16.213Z,12.11
2019-03-31T07:46:16.211Z,12.02
2019-03-31T07:47:16.192Z,11.97
2019-03-31T07:48:16.181Z,11.93
2019-03-31T07:49:16.169Z,11.80
2019-03-31T07:50:16.157Z,11.86
2019-03-31T07:51:16.157Z,11.90
2019-03-31T07:52:16.135Z,11.90
2019-03-31T07:53:16.122Z,11.75
2019-03-31T07:54:16.111Z,11.82
2019-03-31T07:55:16.102Z,11.85
2019-03-31T07:56:16.387Z,11.87
2019-03-31T07:57:16.094Z,12.19
2019-03-31T07:58:16.066Z,12.31
2019-03-31T07:59:16.060Z,12.56
2019-03-31T08:00:16.045Z,12.71
2019-03-31T08:01:16.041Z,13.03
2019-03-31T08:02:16.023Z,13.11
2019-03-31T08:03:16.012Z,13.18
2019-03-31T08:04:15.998Z,13.21
2019-03-31T08:05:15.991Z,13.33
2019-03-31T08:06:15.988Z,13.40
2019-03-31T08:07:15.967Z,13.37
2019-03-31T08:08:15.957Z,13.55
2019-03-31T08:09:15.949Z,13.52
2019-03-31T08:10:15.932Z,13.51
2019-03-31T08:11:17.265Z,13.52
2019-03-31T08:12:15.909Z,13.63
2019-03-31T08:13:15.902Z,13.61
2019-03-31T08:14:15.890Z,13.61
2019-03-31T08:15:15.877Z,13.70
2019-03-31T08:16:15.866Z,13.74
2019-03-31T08:17:15.873Z,13.77
2019-03-31T08:18:15.844Z,13.87
2019-03-31T08:19:15.832Z,13.96
2019-03-31T08:20:15.822Z,14.07
2019-03-31T08:21:15.818Z,14.17
2019-03-31T08:22:15.807Z,14.20
2019-03-31T08:23:15.788Z,14.21
2019-03-31T08:24:15.776Z,14.42
2019-03-31T08:25:15.767Z,14.54
2019-03-31T08:26:15.759Z,14.61
2019-03-31T08:27:15.756Z,14.71
2019-03-31T08:28:15.732Z,14.91
2019-03-31T08:29:15.723Z,15.01
2019-03-31T08:30:15.709Z,15.06
2019-03-31T08:31:15.697Z,15.19
2019-03-31T08:32:15.707Z,15.28
2019-03-31T08:33:15.675Z,15.36
2019-03-31T08:34:15.664Z,15.59
2019-03-31T08:35:15.653Z,15.70
2019-03-31T08:36:15.643Z,15.84
2019-03-31T08:37:15.640Z,15.99
2019-03-31T08:38:15.619Z,16.09
2019-03-31T08:39:15.615Z,16.27
2019-03-31T08:40:15.597Z,16.40
2019-03-31T08:41:15.592Z,16.55
2019-03-31T08:42:15.583Z,16.62
2019-03-31T08:43:15.566Z,16.80
2019-03-31T08:44:15.552Z,16.85
2019-03-31T08:45:15.541Z,16.98
2019-03-31T08:46:15.532Z,17.13
2019-03-31T08:47:15.529Z,17.14
2019-03-31T08:48:15.507Z,17.32
2019-03-31T08:49:15.497Z,17.40
2019-03-31T08:50:15.487Z,17.59
2019-03-31T08:51:15.477Z,17.79
2019-03-31T08:52:15.497Z,17.99
2019-03-31T08:53:15.459Z,18.04
2019-03-31T08:54:15.441Z,18.34
2019-03-31T08:55:15.438Z,18.52
2019-03-31T08:56:15.421Z,18.55
2019-03-31T08:57:15.421Z,18.70
2019-03-31T08:58:15.397Z,18.92
2019-03-31T08:59:15.385Z,18.98
2019-03-31T09:00:15.376Z,19.18
2019-03-31T09:01:15.363Z,19.36
2019-03-31T09:02:15.360Z,19.46
2019-03-31T09:03:15.343Z,19.58
2019-03-31T09:04:15.331Z,19.66
2019-03-31T09:05:15.317Z,19.70
2019-03-31T09:06:15.308Z,19.90
2019-03-31T09:07:15.309Z,19.95
2019-03-31T09:08:15.286Z,20.05
2019-03-31T09:09:15.274Z,20.20
2019-03-31T09:10:15.271Z,20.25
2019-03-31T09:11:15.254Z,20.35
2019-03-31T09:12:15.255Z,20.42
2019-03-31T09:13:15.235Z,20.62
2019-03-31T09:14:15.222Z,20.65
2019-03-31T09:15:15.210Z,20.65
2019-03-31T09:16:15.194Z,20.84
2019-03-31T09:17:15.194Z,20.86
2019-03-31T09:18:15.178Z,20.99
2019-03-31T09:19:15.162Z,21.08
2019-03-31T09:20:15.152Z,21.32
2019-03-31T09:21:15.143Z,21.42
2019-03-31T09:22:15.138Z,21.48
2019-03-31T09:23:15.120Z,21.72
2019-03-31T09:24:15.109Z,21.85
2019-03-31T09:25:15.097Z,21.85
2019-03-31T09:26:15.085Z,21.95
2019-03-31T09:27:15.089Z,22.06
2019-03-31T09:28:15.065Z,22.28
2019-03-31T09:29:15.055Z,22.32
2019-03-31T09:30:15.042Z,22.38
2019-03-31T09:31:15.033Z,22.38
2019-03-31T09:32:15.021Z,22.23
2019-03-31T09:33:15.033Z,22.28
2019-03-31T09:34:15.000Z,22.29
2019-03-31T09:35:14.989Z,22.31
2019-03-31T09:36:16.341Z,22.28
2019-03-31T09:37:14.965Z,22.32
2019-03-31T09:38:14.966Z,22.44
2019-03-31T09:39:14.943Z,22.68
2019-03-31T09:40:14.933Z,22.80
2019-03-31T09:41:14.921Z,22.92
2019-03-31T09:42:14.910Z,23.15
2019-03-31T09:43:14.907Z,23.45
2019-03-31T09:44:14.890Z,23.55
2019-03-31T09:45:14.879Z,23.67
2019-03-31T09:46:14.865Z,23.71
2019-03-31T09:47:14.854Z,23.86
2019-03-31T09:48:14.857Z,23.90
2019-03-31T09:49:14.835Z,23.89
2019-03-31T09:50:17.198Z,24.00
2019-03-31T09:51:14.813Z,24.00
2019-03-31T09:52:14.801Z,23.98
2019-03-31T09:53:14.800Z,24.08
2019-03-31T09:54:14.783Z,24.12
2019-03-31T09:55:14.770Z,24.13
2019-03-31T09:56:15.359Z,24.13
2019-03-31T09:57:14.747Z,24.17
2019-03-31T09:58:14.747Z,24.31
2019-03-31T09:59:14.731Z,24.41
2019-03-31T10:00:14.717Z,24.50
2019-03-31T10:01:14.705Z,24.68
2019-03-31T10:02:14.692Z,24.80
2019-03-31T10:03:14.692Z,24.95
2019-03-31T10:04:14.687Z,25.07
2019-03-31T10:05:14.661Z,25.06
2019-03-31T10:06:14.649Z,24.87
2019-03-31T10:07:14.638Z,24.97
2019-03-31T10:08:14.636Z,25.07
2019-03-31T10:09:14.618Z,25.17
2019-03-31T10:10:14.610Z,25.34
2019-03-31T10:11:14.598Z,25.52
2019-03-31T10:12:14.586Z,25.56
2019-03-31T10:13:14.582Z,25.64
2019-03-31T10:14:14.563Z,25.68
2019-03-31T10:15:14.552Z,25.44
2019-03-31T10:16:14.544Z,25.57
2019-03-31T10:17:14.537Z,25.53
2019-03-31T10:18:17.982Z,25.46
2019-03-31T10:19:14.508Z,25.31
2019-03-31T10:20:14.498Z,24.83
2019-03-31T10:21:14.488Z,24.47
2019-03-31T10:22:14.476Z,24.16
2019-03-31T10:23:14.476Z,23.97
2019-03-31T10:24:14.456Z,23.67
2019-03-31T10:25:14.446Z,23.76
2019-03-31T10:26:16.126Z,23.92
2019-03-31T10:27:15.424Z,24.02
2019-03-31T10:28:14.426Z,23.90
2019-03-31T10:29:14.401Z,23.75
2019-03-31T10:30:14.392Z,23.43
2019-03-31T10:31:14.380Z,23.14
2019-03-31T10:32:14.370Z,22.89
2019-03-31T10:33:14.368Z,22.74
2019-03-31T10:34:14.351Z,22.60
2019-03-31T10:35:14.341Z,22.60
2019-03-31T10:36:14.330Z,22.37
2019-03-31T10:37:14.314Z,22.09
2019-03-31T10:38:14.318Z,21.97
2019-03-31T10:39:14.295Z,21.81
2019-03-31T10:40:14.284Z,21.51
2019-03-31T10:41:14.276Z,21.21
2019-03-31T10:42:14.262Z,20.95
2019-03-31T10:43:14.250Z,20.90
2019-03-31T10:44:14.252Z,20.86
2019-03-31T10:45:14.226Z,20.79
2019-03-31T10:46:14.220Z,20.69
2019-03-31T10:47:14.206Z,20.77
2019-03-31T10:48:20.847Z,20.71
2019-03-31T10:49:15.192Z,20.76
2019-03-31T10:50:14.175Z,20.62
2019-03-31T10:51:14.164Z,20.61
2019-03-31T10:52:14.152Z,20.42
2019-03-31T10:53:14.143Z,20.12
2019-03-31T10:54:14.139Z,19.98
2019-03-31T10:55:14.118Z,19.91
2019-03-31T10:56:14.106Z,19.90
2019-03-31T10:57:14.096Z,19.97
2019-03-31T10:58:14.088Z,19.79
2019-03-31T10:59:14.083Z,19.65
2019-03-31T11:00:14.070Z,19.57
2019-03-31T11:01:14.052Z,19.58
2019-03-31T11:02:14.042Z,19.55
2019-03-31T11:03:14.033Z,19.70
2019-03-31T11:04:14.030Z,20.12
2019-03-31T11:05:14.014Z,20.21
2019-03-31T11:06:14.003Z,20.47
2019-03-31T11:07:13.989Z,20.59
2019-03-31T11:08:13.976Z,20.74
2019-03-31T11:09:13.975Z,20.69
2019-03-31T11:10:13.955Z,20.58
2019-03-31T11:11:13.949Z,20.71
2019-03-31T11:12:13.933Z,20.76
2019-03-31T11:13:13.924Z,20.84
2019-03-31T11:14:13.925Z,20.96
2019-03-31T11:15:13.903Z,20.79
2019-03-31T11:16:13.890Z,20.86
2019-03-31T11:17:13.878Z,20.74
2019-03-31T11:18:13.868Z,20.84
2019-03-31T11:19:13.866Z,20.81
2019-03-31T11:20:13.845Z,20.84
2019-03-31T11:21:13.833Z,20.59
2019-03-31T11:22:13.823Z,20.25
2019-03-31T11:23:13.813Z,20.06
2019-03-31T11:24:13.835Z,19.88
2019-03-31T11:25:20.743Z,19.87
2019-03-31T11:26:14.779Z,19.60
2019-03-31T11:27:13.772Z,19.65
2019-03-31T11:28:13.827Z,19.72
2019-03-31T11:29:13.746Z,19.83
2019-03-31T11:30:13.795Z,19.88
2019-03-31T11:31:13.739Z,19.80
2019-03-31T11:32:13.714Z,19.86
2019-03-31T11:33:13.703Z,20.10
2019-03-31T11:34:13.691Z,20.43
2019-03-31T11:35:13.693Z,20.69
2019-03-31T11:36:13.669Z,20.83
2019-03-31T11:37:14.175Z,21.11
2019-03-31T11:38:13.646Z,21.16
2019-03-31T11:39:16.231Z,21.34
2019-03-31T11:40:13.635Z,21.56
2019-03-31T11:41:13.614Z,21.83
2019-03-31T11:42:13.602Z,22.07
2019-03-31T11:43:13.596Z,22.10
2019-03-31T11:44:13.581Z,22.09
2019-03-31T11:45:13.582Z,22.10
2019-03-31T11:46:13.560Z,22.10
2019-03-31T11:47:13.550Z,22.16
2019-03-31T11:48:13.537Z,22.35
2019-03-31T11:49:13.527Z,22.37
2019-03-31T11:50:13.528Z,22.44
2019-03-31T11:51:13.509Z,22.56
2019-03-31T11:52:13.503Z,22.56
2019-03-31T11:53:13.490Z,22.59
2019-03-31T11:54:13.475Z,22.50
2019-03-31T11:55:13.502Z,22.44
2019-03-31T11:56:13.452Z,22.53
2019-03-31T11:57:13.442Z,22.38
2019-03-31T11:58:13.430Z,22.34
2019-03-31T11:59:13.422Z,22.31
2019-03-31T12:00:13.422Z,22.39
2019-03-31T12:01:13.400Z,22.43
2019-03-31T12:02:26.434Z,22.67
2019-03-31T12:03:14.380Z,22.97
2019-03-31T12:04:13.367Z,23.24
2019-03-31T12:05:13.364Z,23.24
2019-03-31T12:06:13.352Z,23.46
2019-03-31T12:07:26.887Z,23.23
2019-03-31T12:08:14.325Z,23.15
2019-03-31T12:09:13.313Z,23.32
2019-03-31T12:10:13.313Z,23.34
2019-03-31T12:11:13.294Z,23.52
2019-03-31T12:12:13.281Z,23.71
2019-03-31T12:13:13.270Z,23.79
2019-03-31T12:14:13.264Z,23.80
2019-03-31T12:15:13.258Z,23.87
2019-03-31T12:16:13.241Z,23.86
2019-03-31T12:17:13.233Z,23.76
2019-03-31T12:18:13.217Z,23.82
2019-03-31T12:19:13.222Z,23.85
2019-03-31T12:20:13.217Z,23.82
2019-03-31T12:21:13.198Z,23.87
2019-03-31T12:22:13.180Z,23.85
2019-03-31T12:23:13.167Z,23.43
2019-03-31T12:24:13.156Z,23.19
2019-03-31T12:25:13.147Z,22.92
2019-03-31T12:26:13.143Z,22.75
2019-03-31T12:27:13.131Z,22.56
2019-03-31T12:28:13.119Z,22.64
2019-03-31T12:29:13.106Z,22.46
2019-03-31T12:30:13.092Z,22.46
2019-03-31T12:31:13.091Z,22.31
2019-03-31T12:32:13.077Z,22.49
2019-03-31T12:33:13.063Z,22.52
2019-03-31T12:34:13.054Z,22.41
2019-03-31T12:35:13.039Z,22.35
2019-03-31T12:36:13.041Z,22.31
2019-03-31T12:37:13.018Z,22.28
2019-03-31T12:38:13.007Z,21.98
2019-03-31T12:39:13.003Z,22.17
2019-03-31T12:40:15.297Z,22.07
2019-03-31T12:41:12.983Z,22.06
2019-03-31T12:42:12.964Z,22.06
2019-03-31T12:43:12.951Z,22.20
2019-03-31T12:44:12.948Z,22.35
2019-03-31T12:45:12.933Z,22.37
2019-03-31T12:46:12.928Z,22.39
2019-03-31T12:47:12.911Z,22.29
2019-03-31T12:48:12.902Z,22.38
2019-03-31T12:49:12.896Z,22.49
2019-03-31T12:50:12.882Z,22.69
2019-03-31T12:51:12.951Z,22.59
2019-03-31T12:52:12.856Z,22.43
2019-03-31T12:53:12.848Z,22.38
2019-03-31T12:54:12.837Z,22.16
2019-03-31T12:55:12.823Z,21.64
2019-03-31T12:56:12.823Z,21.23
2019-03-31T12:57:12.802Z,21.02
2019-03-31T12:58:12.792Z,20.72
2019-03-31T12:59:12.786Z,20.23
2019-03-31T13:00:12.769Z,19.98
2019-03-31T13:01:12.770Z,19.93
2019-03-31T13:02:12.748Z,19.94
2019-03-31T13:03:15.925Z,19.84
2019-03-31T13:04:12.734Z,19.61
2019-03-31T13:05:12.716Z,19.69
2019-03-31T13:06:12.714Z,19.70